Data for 11/25/2010

Time Sea-Level Adjusted Pressure Absolute Pressure Temperature Relative Humidity Dew Point   
(mb) (inHg) (mb) (inHg) (C) (F) (%) (C) (F)
00:05 1016 30 845 24.95 -17.3 0.9 66 -22.2 -8
00:10 1016 30 845 24.95 -17.1 1.2 66 -22 -7.5
00:15 1016 30 845 24.95 -17 1.3 65 -22.1 -7.9
00:20 1016 30 845 24.95 -17.2 1.1 67 -22 -7.6
00:25 1016 30 845 24.95 -17.1 1.3 64 -22.4 -8.2
00:30 1016 30 845 24.95 -17.3 0.9 66 -22.2 -8
00:35 1016 30 845 24.95 -17 1.5 65 -22.1 -7.9
00:40 1016 30 845 24.95 -16.9 1.7 63 -22.3 -8.2
00:45 1016 30 845 24.95 -17.2 1 64 -22.5 -8.6
00:50 1016 30 845 24.95 -17.4 0.8 61 -23.1 -9.7
00:55 1016 30 845 24.95 -18.2 -0.8 65 -23.3 -10
01:00 1016 30 845 24.95 -18.4 -1.1 65 -23.5 -10.4
01:05 1016 30 845 24.95 -18.8 -1.8 67 -23.5 -10.3
01:10 1016 30 845 24.95 -18.6 -1.4 66 -23.5 -10.3
01:15 1016 30 845 24.95 -18.2 -0.8 64 -23.5 -10.2
01:20 1016 30 845 24.95 -18.5 -1.3 65 -23.5 -10.2
01:25 1016 30 845 24.95 -18.5 -1.4 66 -23.5 -10.3
01:30 1016 30 845 24.95 -18.7 -1.7 68 -23.3 -10
01:35 1016 30 845 24.95 -18.1 -0.6 64 -23.4 -10.1
01:40 1016 30 845 24.95 -18.5 -1.3 66 -23.4 -10.1
01:45 1016 30 845 24.95 -19 -2.2 70 -23.2 -9.8
01:50 1016 30 845 24.95 -19 -2.1 68 -23.6 -10.4
01:55 1016 30 845 24.95 -19.1 -2.4 68 -23.6 -10.5
02:00 1016 30 845 24.95 -19.4 -2.9 69 -23.7 -10.7
02:05 1016 30 845 24.95 -18.8 -1.8 66 -23.7 -10.7
02:10 1016 30 845 24.95 -18.6 -1.5 67 -23.4 -10
02:15 1016 30 845 24.95 -18.9 -2.1 68 -23.5 -10.4
02:20 1016 30 845 24.95 -18.9 -2 66 -23.7 -10.7
02:25 1016 30 845 24.95 -19 -2.1 66 -23.8 -10.8
02:30 1016 30 845 24.95 -19 -2.3 65 -24.1 -11.4
02:35 1016 30 845 24.95 -19.1 -2.3 67 -23.7 -10.7
02:40 1016 30 845 24.95 -19.3 -2.7 68 -23.8 -10.8
02:45 1016 30 845 24.95 -18.8 -1.9 66 -23.6 -10.6
02:50 1016 30 845 24.95 -19.3 -2.7 69 -23.7 -10.7
02:55 1016 30 845 24.95 -19.1 -2.4 66 -23.9 -11.1
03:00 1016 30 845 24.95 -19.2 -2.6 68 -23.7 -10.7
03:05 1016 30 845 24.95 -18.8 -1.9 67 -23.6 -10.4
03:10 1016 30 846 24.98 -18.9 -1.9 66 -23.6 -10.6
03:15 1016 30 846 24.98 -19.2 -2.6 70 -23.4 -10.1
03:20 1016 30 846 24.98 -19.6 -3.2 71 -23.5 -10.3
03:25 1016 30 845 24.95 -19.6 -3.3 68 -24.1 -11.3
03:30 1016 30 846 24.98 -19.8 -3.6 67 -24.3 -11.8
03:35 1016 30 846 24.98 -19.9 -3.8 68 -24.4 -11.9
03:40 1016 30 846 24.98 -20.2 -4.4 68 -24.6 -12.4
03:45 1016 30 846 24.98 -20.4 -4.7 70 -24.5 -12.1
03:50 1016 30 846 24.98 -20 -4 70 -24.1 -11.4
03:55 1016 30 846 24.98 -19.7 -3.4 72 -23.5 -10.3
04:00 1016 30 846 24.98 -19.8 -3.7 70 -24 -11.3
04:05 1017 30.03 846 24.98 -20 -4 69 -24.4 -11.9
04:10 1017 30.03 846 24.98 -20.1 -4.2 69 -24.5 -12.1
04:15 1017 30.03 846 24.98 -20.2 -4.4 70 -24.3 -11.8
04:20 1017 30.03 846 24.98 -19.9 -3.8 68 -24.3 -11.8
04:25 1017 30.03 846 24.98 -19.8 -3.6 68 -24.4 -11.8
04:30 1017 30.03 846 24.98 -19.9 -3.8 70 -24 -11.3
04:35 1017 30.03 846 24.98 -19.4 -2.9 71 -23.4 -10.1
04:40 1017 30.03 846 24.98 -19 -2.2 71 -23 -9.3
04:45 1017 30.03 846 24.98 -18.5 -1.3 69 -22.9 -9.2
04:50 1017 30.03 846 24.98 -18.6 -1.4 69 -22.9 -9.2
04:55 1017 30.03 846 24.98 -18.3 -0.9 69 -22.7 -8.8
05:00 1017 30.03 846 24.98 -18 -0.4 68 -22.5 -8.6
05:05 1017 30.03 846 24.98 -17.7 0.1 67 -22.4 -8.3
05:10 1016 30 846 24.98 -17.6 0.4 68 -22.2 -7.9
05:15 1016 30 846 24.98 -17.5 0.6 68 -22.1 -7.8
05:20 1017 30.03 846 24.98 -17.4 0.7 68 -22 -7.6
05:25 1017 30.03 846 24.98 -17.3 0.9 66 -22.2 -7.9
05:30 1017 30.03 846 24.98 -17.1 1.3 68 -21.7 -7
05:35 1017 30.03 846 24.98 -16.9 1.6 67 -21.6 -6.9
05:40 1017 30.03 846 24.98 -16.9 1.7 67 -21.7 -7
05:45 1017 30.03 846 24.98 -16.9 1.5 65 -22 -7.7
05:50 1017 30.03 846 24.98 -16.6 2 66 -21.6 -6.8
05:55 1017 30.03 846 24.98 -16.4 2.4 66 -21.3 -6.4
06:00 1017 30.03 846 24.98 -16.4 2.4 67 -21.2 -6.2
06:05 1017 30.03 846 24.98 -16.6 2.2 67 -21.4 -6.5
06:10 1017 30.03 846 24.98 -16.6 2.1 65 -21.7 -7.1
06:15 1017 30.03 846 24.98 -16.4 2.4 64 -21.8 -7.2
06:20 1017 30.03 846 24.98 -16.3 2.7 63 -21.9 -7.3
06:25 1017 30.03 846 24.98 -16.1 3 64 -21.5 -6.7
06:30 1017 30.03 846 24.98 -16 3.2 64 -21.4 -6.6
06:35 1017 30.03 846 24.98 -15.9 3.4 64 -21.2 -6.1
06:40 1017 30.03 846 24.98 -15.9 3.3 65 -21 -5.9
06:45 1017 30.03 846 24.98 -15.8 3.6 66 -20.7 -5.3
06:50 1017 30.03 846 24.98 -15.8 3.5 63 -21.4 -6.5
06:55 1017 30.03 846 24.98 -15.7 3.8 67 -20.5 -5
07:00 1017 30.03 846 24.98 -15.6 4 62 -21.2 -6.2
07:05 1017 30.03 846 24.98 -15.5 4.1 62 -21.3 -6.3
07:10 1017 30.03 846 24.98 -15.4 4.2 63 -20.9 -5.6
07:15 1017 30.03 846 24.98 -15.3 4.5 63 -20.9 -5.6
07:20 1017 30.03 846 24.98 -15 5 62 -20.7 -5.2
07:25 1017 30.03 846 24.98 -14.9 5.2 62 -20.6 -5
07:30 1017 30.03 846 24.98 -14.7 5.6 61 -20.6 -5
07:35 1017 30.03 847 25.01 -14.6 5.7 61 -20.7 -5.2
07:40 1017 30.03 847 25.01 -14.6 5.7 62 -20.4 -4.8
07:45 1018 30.06 847 25.01 -14.5 5.9 62 -20.4 -4.6
07:50 1018 30.06 847 25.01 -14.2 6.4 60 -20.5 -4.8
07:55 1018 30.06 847 25.01 -13.9 6.9 58 -20.4 -4.8
08:00 1018 30.06 847 25.01 -13.9 7.1 59 -20.3 -4.5
08:05 1018 30.06 847 25.01 -13.9 7 61 -19.9 -3.9
08:10 1018 30.06 847 25.01 -13.8 7.2 60 -20 -4
08:15 1018 30.06 847 25.01 -13.8 7.1 61 -19.8 -3.6
08:20 1018 30.06 847 25.01 -14.3 6.3 64 -19.6 -3.3
08:25 1018 30.06 847 25.01 -14.6 5.7 65 -19.8 -3.7
08:30 1018 30.06 847 25.01 -14.6 5.7 66 -19.6 -3.3
08:35 1018 30.06 847 25.01 -14.1 6.6 63 -19.7 -3.5
08:40 1018 30.06 847 25.01 -13.8 7.2 63 -19.4 -2.9
08:45 1018 30.06 847 25.01 -13.4 7.9 63 -19.1 -2.4
08:50 1018 30.06 847 25.01 -13.1 8.4 62 -18.9 -2
08:55 1018 30.06 847 25.01 -12.9 8.9 61 -18.9 -2
09:00 1018 30.06 847 25.01 -12.8 9 61 -18.8 -1.9
09:05 1018 30.06 847 25.01 -12.8 9 62 -18.6 -1.4
09:10 1018 30.06 847 25.01 -12.7 9.1 63 -18.4 -1.2
09:15 1018 30.06 847 25.01 -12.7 9.2 62 -18.5 -1.3
09:20 1018 30.06 847 25.01 -12.4 9.7 60 -18.7 -1.6
09:25 1018 30.06 847 25.01 -12.2 10.1 61 -18.3 -1
09:30 1018 30.06 847 25.01 -12.2 10.1 60 -18.5 -1.4
09:35 1018 30.06 847 25.01 -12.1 10.2 60 -18.3 -0.9
09:40 1018 30.06 847 25.01 -11.7 10.9 59 -18.1 -0.7
09:45 1018 30.06 847 25.01 -11.4 11.5 58 -18.1 -0.5
09:50 1018 30.06 847 25.01 -11.2 11.9 58 -18 -0.4
09:55 1018 30.06 847 25.01 -11.2 11.9 58 -17.9 -0.2
10:00 1018 30.06 847 25.01 -11.1 12 58 -17.8 -0.1
10:05 1018 30.06 847 25.01 -11.3 11.8 60 -17.6 0.4
10:10 1018 30.06 847 25.01 -11.4 11.5 59 -17.9 -0.3
10:15 1018 30.06 847 25.01 -11.8 10.8 60 -18.1 -0.5
10:20 1018 30.06 847 25.01 -12 10.3 58 -18.6 -1.5
10:25 1018 30.06 847 25.01 -11.7 11 58 -18.4 -1.1
10:30 1018 30.06 848 25.04 -11.5 11.2 58 -18.3 -1
10:35 1018 30.06 848 25.04 -12.1 10.2 61 -18.2 -0.7
10:40 1018 30.06 848 25.04 -12.7 9.2 63 -18.3 -1
10:45 1018 30.06 848 25.04 -12.4 9.8 62 -18.3 -0.9
10:50 1018 30.06 848 25.04 -12.1 10.3 60 -18.4 -1
10:55 1018 30.06 848 25.04 -11.7 11 60 -18 -0.4
11:00 1018 30.06 847 25.01 -11.4 11.5 58 -18.2 -0.7
11:05 1018 30.06 847 25.01 -11.2 11.9 60 -17.5 0.4
11:10 1018 30.06 847 25.01 -10.9 12.5 60 -17.2 1
11:15 1018 30.06 847 25.01 -10.8 12.5 62 -16.7 2
11:20 1018 30.06 847 25.01 -10.5 13.2 63 -16.3 2.7
11:25 1018 30.06 848 25.04 -10.1 13.8 62 -16 3.2
11:30 1018 30.06 848 25.04 -10.1 13.8 62 -16.2 2.9
11:35 1018 30.06 848 25.04 -10.3 13.5 62 -16.3 2.6
11:40 1019 30.09 848 25.04 -10.3 13.5 62 -16.2 2.8
11:45 1019 30.09 848 25.04 -10.4 13.3 63 -16.2 2.9
11:50 1018 30.06 848 25.04 -10.7 12.8 64 -16.3 2.7
11:55 1018 30.06 848 25.04 -10.7 12.8 65 -16.1 3
12:00 1018 30.06 848 25.04 -10.7 12.8 64 -16.2 2.9
12:05 1018 30.06 848 25.04 -10.7 12.8 64 -16.2 2.8
12:10 1018 30.06 848 25.04 -10.9 12.3 65 -16.4 2.6
12:15 1018 30.06 848 25.04 -10.8 12.5 65 -16.2 2.8
12:20 1018 30.06 848 25.04 -10.6 12.9 66 -15.8 3.6
12:25 1018 30.06 848 25.04 -9.7 14.5 62 -15.8 3.6
12:30 1018 30.06 848 25.04 -9.1 15.7 61 -15.3 4.4
12:35 1018 30.06 848 25.04 -8.8 16.1 60 -15.3 4.5
12:40 1018 30.06 848 25.04 -8.9 16.1 59 -15.5 4.2
12:45 1018 30.06 847 25.01 -8.7 16.4 58 -15.4 4.2
12:50 1018 30.06 847 25.01 -8.5 16.6 57 -15.6 4
12:55 1018 30.06 848 25.04 -8.8 16.2 59 -15.4 4.3
13:00 1018 30.06 847 25.01 -9.1 15.6 61 -15.3 4.5
13:05 1018 30.06 848 25.04 -9.2 15.4 62 -15.3 4.5
13:10 1018 30.06 847 25.01 -9.3 15.3 63 -15.1 4.8
13:15 1018 30.06 847 25.01 -9.2 15.4 63 -15.1 4.8
13:20 1018 30.06 848 25.04 -8.9 15.9 62 -15 5
13:25 1018 30.06 848 25.04 -9.1 15.7 63 -14.9 5.2
13:30 1018 30.06 848 25.04 -9 15.8 63 -14.7 5.5
13:35 1018 30.06 848 25.04 -8.7 16.3 60 -15 4.9
13:40 1018 30.06 848 25.04 -8 17.5 59 -14.6 5.6
13:45 1018 30.06 847 25.01 -6.9 19.5 55 -14.5 5.8
13:50 1018 30.06 848 25.04 -6.4 20.4 54 -14.3 6.2
13:55 1018 30.06 848 25.04 -6.4 20.6 56 -13.8 7.1
14:00 1018 30.06 848 25.04 -6.3 20.7 55 -13.8 7.1
14:05 1018 30.06 848 25.04 -6 21.2 54 -13.8 7.2
14:10 1018 30.06 848 25.04 -6.4 20.5 54 -14.3 6.3
14:15 1018 30.06 848 25.04 -6.2 20.8 53 -14.2 6.4
14:20 1019 30.09 848 25.04 -6.1 20.9 53 -14.1 6.6
14:25 1019 30.09 848 25.04 -6 21.2 53 -14.1 6.7
14:30 1019 30.09 848 25.04 -5.9 21.3 54 -13.8 7.1
14:35 1019 30.09 848 25.04 -6.1 21 55 -13.7 7.4
14:40 1019 30.09 848 25.04 -6 21.2 56 -13.4 7.9
14:45 1019 30.09 848 25.04 -5.9 21.3 55 -13.6 7.5
14:50 1019 30.09 848 25.04 -6.1 21.1 55 -13.8 7.1
14:55 1019 30.09 848 25.04 -6.1 21 56 -13.6 7.6
15:00 1019 30.09 848 25.04 -6.1 20.9 58 -13.2 8.2
15:05 1019 30.09 848 25.04 -6.1 21 58 -13.2 8.3
15:10 1019 30.09 848 25.04 -6.4 20.5 58 -13.4 7.9
15:15 1019 30.09 848 25.04 -6.9 19.5 60 -13.4 7.9
15:20 1019 30.09 848 25.04 -7 19.3 61 -13.3 8.1
15:25 1019 30.09 848 25.04 -7 19.3 60 -13.6 7.6
15:30 1019 30.09 848 25.04 -6.8 19.7 60 -13.4 7.8
15:35 1019 30.09 848 25.04 -6.8 19.7 61 -13.1 8.4
15:40 1019 30.09 848 25.04 -7 19.3 64 -12.7 9.1
15:45 1019 30.09 848 25.04 -7.3 18.9 66 -12.5 9.5
15:50 1019 30.09 848 25.04 -7.7 18.2 71 -12.1 10.3
15:55 1019 30.09 848 25.04 -7.8 17.9 73 -11.8 10.7
16:00 1019 30.09 848 25.04 -8 17.5 76 -11.6 11.1
16:05 1019 30.09 848 25.04 -8.1 17.5 75 -11.7 10.9
16:10 1019 30.09 848 25.04 -8.1 17.3 77 -11.6 11.2
16:15 1019 30.09 848 25.04 -8.1 17.3 79 -11.2 11.9
16:20 1019 30.09 848 25.04 -8 17.6 80 -10.8 12.6
16:25 1019 30.09 848 25.04 -7.9 17.9 81 -10.5 13
16:30 1019 30.09 849 25.07 -7.7 18.1 81 -10.4 13.3
16:35 1019 30.09 849 25.07 -7.9 17.8 78 -11 12.2
16:40 1019 30.09 848 25.04 -8.6 16.5 81 -11.3 11.7
16:45 1019 30.09 848 25.04 -8.9 16 83 -11.3 11.7
16:50 1019 30.09 848 25.04 -9 15.8 84 -11.2 11.8
16:55 1019 30.09 848 25.04 -9.2 15.4 86 -11.1 12
17:00 1019 30.09 848 25.04 -9.3 15.3 87 -11.1 12
17:05 1019 30.09 848 25.04 -9.3 15.2 87 -11.1 12.1
17:10 1019 30.09 848 25.04 -9.3 15.3 88 -10.9 12.4
17:15 1019 30.09 849 25.07 -9.2 15.5 89 -10.7 12.7
17:20 1019 30.09 849 25.07 -9 15.8 88 -10.7 12.8
17:25 1020 30.12 849 25.07 -8.9 16 88 -10.6 12.9
17:30 1020 30.12 849 25.07 -8.8 16.1 87 -10.6 12.9
17:35 1020 30.12 849 25.07 -8.9 15.9 87 -10.7 12.7
17:40 1020 30.12 849 25.07 -9 15.8 87 -10.8 12.6
17:45 1020 30.12 849 25.07 -9.1 15.6 87 -10.9 12.5
17:50 1020 30.12 849 25.07 -9.2 15.4 87 -11 12.3
17:55 1020 30.12 849 25.07 -9.5 15 88 -11.1 12.1
18:00 1020 30.12 849 25.07 -9.7 14.5 89 -11.2 11.8
18:05 1020 30.12 850 25.1 -10 14 90 -11.3 11.7
18:10 1020 30.12 850 25.1 -9.9 14.1 90 -11.3 11.7
18:15 1020 30.12 850 25.1 -10 14.1 90 -11.3 11.7
18:20 1020 30.12 850 25.1 -10 14 91 -11.2 11.8
18:25 1021 30.15 850 25.1 -9.9 14.1 92 -11.1 12.1
18:30 1020 30.12 850 25.1 -9.7 14.6 92 -10.8 12.5
18:35 1020 30.12 850 25.1 -9.5 14.8 91 -10.7 12.7
18:40 1020 30.12 850 25.1 -9.5 14.9 92 -10.6 12.9
18:45 1020 30.12 850 25.1 -9.5 15 92 -10.5 13.1
18:50 1020 30.12 850 25.1 -9.3 15.3 92 -10.3 13.4
18:55 1020 30.12 850 25.1 -9.1 15.7 93 -10.1 13.9
19:00 1020 30.12 850 25.1 -8.8 16.2 92 -9.8 14.3
19:05 1020 30.12 850 25.1 -8.5 16.6 92 -9.6 14.7
19:10 1020 30.12 850 25.1 -8.4 16.9 92 -9.5 15
19:15 1020 30.12 850 25.1 -8.5 16.8 91 -9.7 14.6
19:20 1020 30.12 849 25.07 -8.7 16.4 92 -9.8 14.4
19:25 1020 30.12 849 25.07 -8.7 16.4 92 -9.8 14.3
19:30 1020 30.12 849 25.07 -8.8 16.2 92 -9.8 14.3
19:35 1020 30.12 849 25.07 -8.6 16.4 92 -9.7 14.5
19:40 1020 30.12 849 25.07 -8.5 16.8 92 -9.5 14.8
19:45 1020 30.12 849 25.07 -8.3 17 92 -9.4 15
19:50 1020 30.12 849 25.07 -8.2 17.3 90 -9.5 14.9
19:55 1020 30.12 850 25.1 -8.5 16.7 90 -9.9 14.2
20:00 1020 30.12 850 25.1 -8.8 16.1 91 -10 14
20:05 1020 30.12 850 25.1 -8.9 16.1 91 -10 14
20:10 1020 30.12 850 25.1 -8.9 15.9 91 -10.2 13.6
20:15 1020 30.12 850 25.1 -9.2 15.5 91 -10.4 13.3
20:20 1020 30.12 850 25.1 -9.3 15.2 92 -10.4 13.3
20:25 1020 30.12 850 25.1 -9.2 15.5 92 -10.3 13.5
20:30 1020 30.12 850 25.1 -9 15.8 92 -10 13.9
20:35 1020 30.12 850 25.1 -8.8 16.3 93 -9.7 14.5
20:40 1020 30.12 850 25.1 -8.4 16.8 90 -9.7 14.5
20:45 1020 30.12 850 25.1 -8.6 16.5 91 -9.8 14.3
20:50 1020 30.12 850 25.1 -8.5 16.8 90 -9.8 14.3
20:55 1020 30.12 850 25.1 -8.4 17 91 -9.6 14.7
21:00 1021 30.15 850 25.1 -8.2 17.2 90 -9.5 14.8
21:05 1021 30.15 850 25.1 -8.2 17.3 89 -9.6 14.7
21:10 1021 30.15 850 25.1 -8.5 16.8 90 -9.8 14.4
21:15 1021 30.15 850 25.1 -8.7 16.4 91 -9.9 14.2
21:20 1021 30.15 850 25.1 -8.7 16.3 91 -9.9 14.1
21:25 1021 30.15 850 25.1 -8.7 16.3 92 -9.8 14.3
21:30 1021 30.15 850 25.1 -8.6 16.6 91 -9.8 14.4
21:35 1021 30.15 850 25.1 -8.5 16.7 91 -9.7 14.5
21:40 1021 30.15 850 25.1 -8.4 16.9 90 -9.8 14.4
21:45 1021 30.15 850 25.1 -8.3 17 89 -9.9 14.2
21:50 1021 30.15 850 25.1 -8.3 17.1 89 -9.8 14.3
21:55 1021 30.15 850 25.1 -8.4 16.9 89 -9.9 14.2
22:00 1021 30.15 850 25.1 -8.5 16.6 89 -10 14
22:05 1021 30.15 850 25.1 -8.7 16.3 90 -10.1 13.8
22:10 1021 30.15 850 25.1 -8.9 16.1 90 -10.2 13.7
22:15 1021 30.15 850 25.1 -8.9 16 91 -10.2 13.7
22:20 1021 30.15 850 25.1 -9 15.8 91 -10.2 13.6
22:25 1021 30.15 850 25.1 -9 15.7 91 -10.3 13.4
22:30 1021 30.15 850 25.1 -9.1 15.6 91 -10.4 13.3
22:35 1021 30.15 850 25.1 -9.3 15.4 91 -10.5 13.2
22:40 1021 30.15 850 25.1 -9.3 15.2 91 -10.5 13.1
22:45 1021 30.15 850 25.1 -9.4 15 91 -10.6 12.8
22:50 1021 30.15 850 25.1 -9.6 14.8 92 -10.7 12.8
22:55 1021 30.15 850 25.1 -9.7 14.6 92 -10.7 12.8
23:00 1021 30.15 850 25.1 -9.5 14.8 92 -10.6 13
23:05 1021 30.15 850 25.1 -9.5 14.9 92 -10.6 12.9
23:10 1021 30.15 850 25.1 -9.7 14.6 93 -10.6 12.9
23:15 1021 30.15 850 25.1 -9.6 14.7 93 -10.5 13.1
23:20 1021 30.15 850 25.1 -9.6 14.7 93 -10.5 13.1
23:25 1021 30.15 850 25.1 -9.6 14.8 93 -10.5 13.1
23:30 1021 30.15 850 25.1 -9.6 14.7 93 -10.6 12.9
23:35 1021 30.15 850 25.1 -9.8 14.4 93 -10.7 12.7
23:40 1021 30.15 850 25.1 -9.8 14.4 93 -10.8 12.6
23:45 1021 30.15 850 25.1 -9.8 14.4 93 -10.8 12.6
23:50 1021 30.15 850 25.1 -9.7 14.5 92 -10.7 12.7
23:55 1021 30.15 851 25.13 -9.7 14.6 92 -10.7 12.8
24:00 1021 30.15 851 25.13 -9.6 14.7 92 -10.7 12.8